createdAt,value
2022-12-27T00:00:10.793Z,98253.15
2022-12-27T00:03:02.265Z,98248.84
2022-12-27T00:05:31.424Z,98246.52
2022-12-27T00:07:59.807Z,98239.95
2022-12-27T00:10:28.356Z,98241.55
2022-12-27T00:12:56.360Z,98242.23
2022-12-27T00:15:24.494Z,98241.05
2022-12-27T00:17:52.592Z,98235.16
2022-12-27T00:20:20.695Z,98231.85
2022-12-27T00:22:48.734Z,98220.02
2022-12-27T00:25:16.999Z,98221.64
2022-12-27T00:27:45.291Z,98225.05
2022-12-27T00:30:15.192Z,98225.38
2022-12-27T00:32:43.366Z,98221.03
2022-12-27T00:35:11.474Z,98212.27
2022-12-27T00:37:39.429Z,98204.82
2022-12-27T00:40:08.594Z,98202.52
2022-12-27T00:42:36.739Z,98201.14
2022-12-27T00:45:05.984Z,98202.89
2022-12-27T00:47:34.151Z,98205.87
2022-12-27T00:50:02.273Z,98208.48
2022-12-27T00:52:31.321Z,98198.85
2022-12-27T00:54:59.708Z,98195.10
2022-12-27T00:57:27.796Z,98193.66
2022-12-27T00:59:56.039Z,98194.52
2022-12-27T01:02:24.350Z,98190.42
2022-12-27T01:04:54.022Z,98184.87
2022-12-27T01:07:22.085Z,98180.80
2022-12-27T01:09:51.006Z,98180.16
2022-12-27T01:12:19.249Z,98181.26
2022-12-27T01:14:47.344Z,98181.98
2022-12-27T01:17:15.815Z,98191.11
2022-12-27T01:19:43.884Z,98187.20
2022-12-27T01:22:12.260Z,98189.50
2022-12-27T01:24:40.318Z,98192.27
2022-12-27T01:27:08.309Z,98194.36
2022-12-27T01:29:36.460Z,98182.77
2022-12-27T01:32:04.913Z,98178.34
2022-12-27T01:34:33.012Z,98170.86
2022-12-27T01:37:01.710Z,98169.91
2022-12-27T01:39:29.883Z,98165.68
2022-12-27T01:42:16.405Z,98164.18
2022-12-27T01:44:55.192Z,98159.92
2022-12-27T01:47:50.817Z,98157.49
2022-12-27T01:50:31.681Z,98157.36
2022-12-27T01:53:27.157Z,98149.91
2022-12-27T01:56:28.701Z,98145.23
2022-12-27T01:59:08.186Z,98144.48
2022-12-27T02:01:42.677Z,98147.31
2022-12-27T02:04:17.012Z,98139.08
2022-12-27T02:06:47.042Z,98139.08
2022-12-27T02:09:24.269Z,98142.02
2022-12-27T02:11:57.026Z,98139.67
2022-12-27T02:14:34.457Z,98130.33
2022-12-27T02:17:06.748Z,98128.38
2022-12-27T02:19:40.997Z,98128.85
2022-12-27T02:23:00.468Z,98126.25
2022-12-27T02:25:46.841Z,98128.17
2022-12-27T02:28:33.201Z,98128.80
2022-12-27T02:31:11.778Z,98128.15
2022-12-27T02:33:46.935Z,98130.94
2022-12-27T02:36:22.963Z,98130.52
2022-12-27T02:38:55.573Z,98127.04
2022-12-27T02:41:43.992Z,98127.93
2022-12-27T02:44:36.636Z,98130.14
2022-12-27T02:47:37.066Z,98130.12
2022-12-27T02:50:26.886Z,98127.80
2022-12-27T02:53:32.149Z,98124.23
2022-12-27T02:56:24.682Z,98120.02
2022-12-27T02:59:14.607Z,98119.54
2022-12-27T03:02:10.561Z,98124.11
2022-12-27T03:04:53.038Z,98117.50
2022-12-27T03:07:53.055Z,98122.77
2022-12-27T03:10:42.835Z,98119.39
2022-12-27T03:13:55.066Z,98120.31
2022-12-27T03:16:32.432Z,98124.61
2022-12-27T03:19:36.182Z,98104.34
2022-12-27T03:22:25.882Z,98114.63
2022-12-27T03:25:15.688Z,98106.96
2022-12-27T03:28:07.937Z,98107.61
2022-12-27T03:30:57.909Z,98095.06
2022-12-27T03:33:28.094Z,98099.16
2022-12-27T03:36:24.405Z,98094.67
2022-12-27T03:39:03.665Z,98101.42
2022-12-27T03:41:58.704Z,98097.51
2022-12-27T03:44:28.004Z,98092.64
2022-12-27T03:46:59.552Z,98084.59
2022-12-27T03:49:44.190Z,98079.77
2022-12-27T03:52:20.371Z,98072.80
2022-12-27T03:54:51.266Z,98073.57
2022-12-27T03:57:23.469Z,98072.05
2022-12-27T03:59:52.675Z,98067.81
2022-12-27T04:02:20.994Z,98076.79
2022-12-27T04:04:51.272Z,98072.63
2022-12-27T04:07:19.344Z,98068.37
2022-12-27T04:10:06.368Z,98064.79
2022-12-27T04:12:52.864Z,98071.23
2022-12-27T04:15:39.787Z,98077.41
2022-12-27T04:18:26.832Z,98082.85
2022-12-27T04:21:13.704Z,98087.86
2022-12-27T04:24:00.135Z,98085.54
2022-12-27T04:26:46.892Z,98085.69
2022-12-27T04:29:33.426Z,98086.42
2022-12-27T04:32:22.264Z,98082.89
2022-12-27T04:34:50.541Z,98090.59
2022-12-27T04:37:20.180Z,98094.17
2022-12-27T04:40:07.175Z,98089.57
2022-12-27T04:42:53.995Z,98092.06
2022-12-27T04:45:41.652Z,98093.73
2022-12-27T04:48:49.391Z,98097.73
2022-12-27T04:51:49.946Z,98100.46
2022-12-27T04:54:43.212Z,98103.48
2022-12-27T04:57:11.373Z,98107.56
2022-12-27T05:00:14.559Z,98107.33
2022-12-27T05:02:43.281Z,98120.28
2022-12-27T05:05:12.245Z,98120.78
2022-12-27T05:07:59.149Z,98119.26
2022-12-27T05:10:46.671Z,98120.91
2022-12-27T05:13:33.497Z,98115.80
2022-12-27T05:16:01.995Z,98104.14
2022-12-27T05:18:30.129Z,98101.79
2022-12-27T05:21:06.155Z,98107.94
2022-12-27T05:23:53.210Z,98111.52
2022-12-27T05:26:27.253Z,98118.27
2022-12-27T05:28:57.750Z,98119.82
2022-12-27T05:31:26.909Z,98116.90
2022-12-27T05:33:55.437Z,98119.86
2022-12-27T05:36:24.447Z,98119.36
2022-12-27T05:38:52.799Z,98119.32
2022-12-27T05:41:20.958Z,98117.78
2022-12-27T05:43:50.265Z,98114.23
2022-12-27T05:46:20.975Z,98116.97
2022-12-27T05:48:49.165Z,98115.44
2022-12-27T05:51:20.397Z,98114.44
2022-12-27T05:53:49.336Z,98112.38
2022-12-27T05:56:20.006Z,98115.40
2022-12-27T05:58:48.644Z,98119.28
2022-12-27T06:01:18.372Z,98127.30
2022-12-27T06:03:46.496Z,98131.86
2022-12-27T06:06:14.550Z,98135.31
2022-12-27T06:08:42.737Z,98142.84
2022-12-27T06:11:19.518Z,98151.33
2022-12-27T06:13:53.297Z,98158.23
2022-12-27T06:16:23.115Z,98153.45
2022-12-27T06:18:51.417Z,98153.76
2022-12-27T06:21:21.559Z,98162.44
2022-12-27T06:23:50.388Z,98170.55
2022-12-27T06:26:24.893Z,98170.65
2022-12-27T06:28:54.574Z,98165.52
2022-12-27T06:31:23.604Z,98172.94
2022-12-27T06:33:52.451Z,98181.92
2022-12-27T06:36:24.420Z,98188.30
2022-12-27T06:38:52.488Z,98189.30
2022-12-27T06:41:20.567Z,98189.55
2022-12-27T06:43:54.020Z,98191.73
2022-12-27T06:46:24.492Z,98200.23
2022-12-27T06:48:53.170Z,98207.91
2022-12-27T06:51:22.093Z,98211.88
2022-12-27T06:53:50.632Z,98217.05
2022-12-27T06:56:24.000Z,98219.31
2022-12-27T06:58:52.704Z,98225.23
2022-12-27T07:01:23.868Z,98224.67
2022-12-27T07:03:54.471Z,98222.33
2022-12-27T07:06:24.170Z,98223.73
2022-12-27T07:08:52.962Z,98230.48
2022-12-27T07:11:22.711Z,98235.52
2022-12-27T07:13:53.701Z,98234.98
2022-12-27T07:16:25.217Z,98238.59
2022-12-27T07:18:55.125Z,98237.31
2022-12-27T07:21:24.908Z,98241.31
2022-12-27T07:23:53.769Z,98245.11
2022-12-27T07:26:26.049Z,98245.86
2022-12-27T07:28:55.210Z,98248.39
2022-12-27T07:31:26.523Z,98247.73
2022-12-27T07:33:54.754Z,98246.41
2022-12-27T07:36:33.405Z,98247.45
2022-12-27T07:39:01.914Z,98245.17
2022-12-27T07:41:31.139Z,98237.23
2022-12-27T07:44:02.793Z,98238.51
2022-12-27T07:46:30.935Z,98237.27
2022-12-27T07:49:00.162Z,98232.23
2022-12-27T07:51:28.557Z,98230.89
2022-12-27T07:53:56.841Z,98223.66
2022-12-27T07:56:27.320Z,98220.52
2022-12-27T07:58:57.975Z,98221.02
2022-12-27T08:01:28.616Z,98219.37
2022-12-27T08:03:56.874Z,98213.52
2022-12-27T08:06:29.051Z,98216.16
2022-12-27T08:08:59.727Z,98214.87
2022-12-27T08:11:28.169Z,98214.60
2022-12-27T08:13:56.866Z,98216.61
2022-12-27T08:16:27.129Z,98218.91
2022-12-27T08:18:56.207Z,98218.48
2022-12-27T08:21:24.392Z,98220.09
2022-12-27T08:23:52.544Z,98222.07
2022-12-27T08:26:21.510Z,98215.46
2022-12-27T08:28:49.437Z,98225.06
2022-12-27T08:31:17.481Z,98228.05
2022-12-27T08:33:45.955Z,98232.45
2022-12-27T08:36:52.998Z,98237.31
2022-12-27T08:39:02.970Z,98241.91
2022-12-27T08:41:31.334Z,98250.05
2022-12-27T08:43:59.606Z,98261.43
2022-12-27T08:46:27.803Z,98262.86
2022-12-27T08:48:56.011Z,98263.05
2022-12-27T08:51:34.334Z,98265.07
2022-12-27T08:54:07.448Z,98267.88
2022-12-27T08:56:35.829Z,98262.59
2022-12-27T08:59:04.628Z,98259.46
2022-12-27T09:01:33.348Z,98251.18
2022-12-27T09:04:01.781Z,98250.12
2022-12-27T09:06:30.276Z,98246.42
2022-12-27T09:08:59.798Z,98226.66
2022-12-27T09:11:30.825Z,98232.38
2022-12-27T09:14:01.965Z,98230.34
2022-12-27T09:16:31.352Z,98228.75
2022-12-27T09:19:00.444Z,98222.36
2022-12-27T09:21:31.837Z,98224.91
2022-12-27T09:24:00.348Z,98228.98
2022-12-27T09:26:30.294Z,98223.70
2022-12-27T09:28:59.814Z,98232.33
2022-12-27T09:31:28.378Z,98229.98
2022-12-27T09:33:57.319Z,98228.05
2022-12-27T09:36:28.615Z,98231.36
2022-12-27T09:38:58.082Z,98227.31
2022-12-27T09:42:25.964Z,98224.63
2022-12-27T09:44:39.310Z,98215.75
2022-12-27T09:47:19.710Z,98218.56
2022-12-27T09:49:57.813Z,98213.53
2022-12-27T09:52:37.400Z,98205.48
2022-12-27T09:55:14.838Z,98205.44
2022-12-27T09:57:45.344Z,98208.30
2022-12-27T10:00:34.359Z,98207.00
2022-12-27T10:03:07.300Z,98204.84
2022-12-27T10:05:39.639Z,98210.92
2022-12-27T10:08:43.726Z,98204.27
2022-12-27T10:11:38.817Z,98202.28
2022-12-27T10:14:19.335Z,98191.64
2022-12-27T10:17:01.443Z,98195.61
2022-12-27T10:20:10.056Z,98206.57
2022-12-27T10:23:01.460Z,98210.05
2022-12-27T10:25:36.199Z,98201.75
2022-12-27T10:28:39.368Z,98212.63
2022-12-27T10:31:14.536Z,98211.59
2022-12-27T10:33:44.096Z,98215.80
2022-12-27T10:36:18.431Z,98224.13
2022-12-27T10:38:46.734Z,98226.55
2022-12-27T10:41:32.579Z,98221.50
2022-12-27T10:44:01.301Z,98225.39
2022-12-27T10:46:33.754Z,98226.56
2022-12-27T10:49:22.425Z,98218.81
2022-12-27T10:51:53.577Z,98211.84
2022-12-27T10:54:26.209Z,98209.13
2022-12-27T10:56:55.879Z,98205.59
2022-12-27T10:59:27.079Z,98217.97
2022-12-27T11:02:01.855Z,98214.38
2022-12-27T11:04:31.599Z,98217.32
2022-12-27T11:07:01.972Z,98226.81
2022-12-27T11:09:44.965Z,98232.42
2022-12-27T11:12:29.338Z,98233.95
2022-12-27T11:14:57.534Z,98234.61
2022-12-27T11:17:41.151Z,98238.71
2022-12-27T11:20:22.218Z,98239.34
2022-12-27T11:22:50.188Z,98247.62
2022-12-27T11:25:19.128Z,98242.98
2022-12-27T11:27:53.911Z,98230.17
2022-12-27T11:30:31.353Z,98204.31
2022-12-27T11:33:05.992Z,98208.32
2022-12-27T11:35:46.166Z,98219.27
2022-12-27T11:38:28.328Z,98219.38
2022-12-27T11:41:01.691Z,98217.93
2022-12-27T11:43:35.950Z,98210.11
2022-12-27T11:46:10.725Z,98218.80
2022-12-27T11:48:45.223Z,98225.77
2022-12-27T11:51:38.162Z,98220.41
2022-12-27T11:54:15.168Z,98237.73
2022-12-27T11:57:00.483Z,98246.23
2022-12-27T12:00:18.121Z,98235.95
2022-12-27T12:03:11.309Z,98243.64
2022-12-27T12:05:51.795Z,98237.85
2022-12-27T12:08:35.159Z,98244.02
2022-12-27T12:11:08.805Z,98248.31
2022-12-27T12:14:12.235Z,98260.15
2022-12-27T12:17:02.233Z,98259.80
2022-12-27T12:19:36.450Z,98257.97
2022-12-27T12:22:07.366Z,98262.24
2022-12-27T12:25:18.448Z,98274.84
2022-12-27T12:27:59.204Z,98281.31
2022-12-27T12:31:02.738Z,98286.54
2022-12-27T12:34:07.968Z,98282.44
2022-12-27T12:36:52.665Z,98274.69
2022-12-27T12:39:43.086Z,98297.20
2022-12-27T12:42:32.791Z,98298.17
2022-12-27T12:45:37.093Z,98305.78
2022-12-27T12:48:05.215Z,98303.42
2022-12-27T12:50:45.382Z,98317.31
2022-12-27T12:53:33.712Z,98322.96
2022-12-27T12:56:10.151Z,98318.52
2022-12-27T12:58:56.756Z,98322.74
2022-12-27T13:01:50.536Z,98320.32
2022-12-27T13:04:36.116Z,98319.19
2022-12-27T13:07:40.971Z,98322.33
2022-12-27T13:10:46.698Z,98329.05
2022-12-27T13:13:39.562Z,98337.39
2022-12-27T13:16:23.424Z,98335.88
2022-12-27T13:19:06.268Z,98343.55
2022-12-27T13:21:55.366Z,98345.55
2022-12-27T13:24:47.724Z,98344.25
2022-12-27T13:27:31.046Z,98344.68
2022-12-27T13:30:22.377Z,98344.20
2022-12-27T13:32:58.701Z,98353.36
2022-12-27T13:35:35.958Z,98352.29
2022-12-27T13:38:31.324Z,98361.38
2022-12-27T13:41:44.846Z,98359.59
2022-12-27T13:44:36.753Z,98361.28
2022-12-27T13:47:23.701Z,98367.67
2022-12-27T13:50:23.465Z,98368.89
2022-12-27T13:53:17.191Z,98373.50
2022-12-27T13:56:43.038Z,98367.87
2022-12-27T13:59:21.016Z,98368.67
2022-12-27T14:02:15.433Z,98372.02
2022-12-27T14:04:59.179Z,98366.38
2022-12-27T14:07:49.202Z,98364.15
2022-12-27T14:10:29.366Z,98362.05
2022-12-27T14:13:04.111Z,98361.88
2022-12-27T14:15:41.674Z,98371.66
2022-12-27T14:18:21.942Z,98378.71
2022-12-27T14:20:53.401Z,98380.63
2022-12-27T14:23:36.411Z,98382.77
2022-12-27T14:26:17.185Z,98389.55
2022-12-27T14:28:59.929Z,98394.48
2022-12-27T14:32:01.504Z,98396.53
2022-12-27T14:34:35.738Z,98403.44
2022-12-27T14:37:18.744Z,98406.95
2022-12-27T14:40:08.913Z,98407.89
2022-12-27T14:42:59.168Z,98409.55
2022-12-27T14:45:46.143Z,98415.58
2022-12-27T14:48:32.492Z,98424.79
2022-12-27T14:51:59.468Z,98433.69
2022-12-27T14:54:20.851Z,98450.58
2022-12-27T14:57:06.116Z,98455.39
2022-12-27T14:59:52.831Z,98463.85
2022-12-27T15:02:36.278Z,98470.48
2022-12-27T15:05:16.570Z,98472.86
2022-12-27T15:08:07.315Z,98479.01
2022-12-27T15:10:56.536Z,98484.12
2022-12-27T15:13:27.421Z,98489.09
2022-12-27T15:16:18.733Z,98498.33
2022-12-27T15:19:11.612Z,98512.50
2022-12-27T15:22:07.345Z,98521.88
2022-12-27T15:25:13.363Z,98513.50
2022-12-27T15:28:05.109Z,98520.83
2022-12-27T15:30:54.663Z,98521.33
2022-12-27T15:33:45.986Z,98519.80
2022-12-27T15:36:16.825Z,98521.36
2022-12-27T15:38:54.335Z,98521.71
2022-12-27T15:41:41.635Z,98529.84
2022-12-27T15:44:44.228Z,98538.12
2022-12-27T15:47:50.572Z,98541.39
2022-12-27T15:50:21.718Z,98546.05
2022-12-27T15:53:00.903Z,98552.55
2022-12-27T15:55:29.853Z,98553.57
2022-12-27T15:58:20.567Z,98556.09
2022-12-27T16:01:22.193Z,98560.85
2022-12-27T16:03:54.829Z,98574.05
2022-12-27T16:06:35.069Z,98585.34
2022-12-27T16:09:24.732Z,98596.25
2022-12-27T16:12:08.508Z,98612.29
2022-12-27T16:14:42.320Z,98619.63
2022-12-27T16:17:13.619Z,98629.86
2022-12-27T16:20:15.809Z,98640.05
2022-12-27T16:22:54.070Z,98652.64
2022-12-27T16:25:30.292Z,98650.86
2022-12-27T16:28:23.950Z,98643.86
2022-12-27T16:30:55.703Z,98644.89
2022-12-27T16:33:26.531Z,98651.23
2022-12-27T16:36:13.543Z,98649.39
2022-12-27T16:38:45.791Z,98647.58
2022-12-27T16:41:17.392Z,98646.84
2022-12-27T16:44:02.110Z,98646.30
2022-12-27T16:46:33.380Z,98645.94
2022-12-27T16:49:13.399Z,98658.30
2022-12-27T16:52:00.590Z,98663.20
2022-12-27T16:55:02.034Z,98666.84
2022-12-27T16:57:42.908Z,98671.77
2022-12-27T17:00:11.211Z,98676.64
2022-12-27T17:02:46.351Z,98680.69
2022-12-27T17:05:14.585Z,98685.05
2022-12-27T17:07:57.767Z,98691.75
2022-12-27T17:10:30.319Z,98698.19
2022-12-27T17:13:16.883Z,98700.23
2022-12-27T17:16:19.881Z,98699.06
2022-12-27T17:18:50.942Z,98702.80
2022-12-27T17:21:30.515Z,98700.09
2022-12-27T17:24:07.736Z,98708.40
2022-12-27T17:27:10.846Z,98713.59
2022-12-27T17:29:57.679Z,98721.36
2022-12-27T17:32:50.757Z,98728.63
2022-12-27T17:35:49.317Z,98729.63
2022-12-27T17:38:23.414Z,98733.31
2022-12-27T17:41:15.801Z,98740.00
2022-12-27T17:44:31.462Z,98745.82
2022-12-27T17:47:37.177Z,98748.95
2022-12-27T17:50:12.256Z,98750.85
2022-12-27T17:52:59.174Z,98754.40
2022-12-27T17:55:47.720Z,98755.67
2022-12-27T17:58:17.314Z,98759.67
2022-12-27T18:00:59.558Z,98758.93
2022-12-27T18:03:43.045Z,98764.25
2022-12-27T18:06:12.159Z,98768.22
2022-12-27T18:08:40.673Z,98770.69
2022-12-27T18:11:11.178Z,98779.23
2022-12-27T18:13:49.284Z,98784.88
2022-12-27T18:16:23.350Z,98785.09
2022-12-27T18:18:54.366Z,98783.61
2022-12-27T18:21:25.613Z,98778.73
2022-12-27T18:23:55.080Z,98783.48
2022-12-27T18:26:37.355Z,98776.61
2022-12-27T18:29:06.152Z,98769.91
2022-12-27T18:31:51.951Z,98769.52
2022-12-27T18:34:26.097Z,98769.13
2022-12-27T18:36:59.399Z,98769.38
2022-12-27T18:40:02.064Z,98778.91
2022-12-27T18:42:43.752Z,98782.81
2022-12-27T18:45:26.385Z,98788.66
2022-12-27T18:47:56.894Z,98791.09
2022-12-27T18:50:28.506Z,98792.06
2022-12-27T18:53:31.832Z,98793.27
2022-12-27T18:56:04.888Z,98796.17
2022-12-27T18:58:34.988Z,98795.05
2022-12-27T19:01:05.508Z,98791.52
2022-12-27T19:03:38.350Z,98793.02
2022-12-27T19:06:11.960Z,98797.50
2022-12-27T19:08:46.338Z,98802.39
2022-12-27T19:11:29.341Z,98804.70
2022-12-27T19:14:01.097Z,98811.77
2022-12-27T19:16:30.297Z,98816.95
2022-12-27T19:19:19.461Z,98824.74
2022-12-27T19:21:47.940Z,98830.34
2022-12-27T19:24:34.371Z,98839.45
2022-12-27T19:27:16.475Z,98843.59
2022-12-27T19:29:50.977Z,98845.04
2022-12-27T19:32:24.103Z,98844.05
2022-12-27T19:34:56.348Z,98845.89
2022-12-27T19:37:27.001Z,98847.85
2022-12-27T19:39:55.570Z,98844.73
2022-12-27T19:42:29.649Z,98841.65
2022-12-27T19:44:57.754Z,98848.47
2022-12-27T19:47:27.440Z,98849.63
2022-12-27T19:49:55.597Z,98846.34
2022-12-27T19:52:27.115Z,98848.77
2022-12-27T19:55:04.172Z,98854.88
2022-12-27T19:57:32.611Z,98856.67
2022-12-27T20:00:05.446Z,98855.54
2022-12-27T20:02:36.890Z,98852.04
2022-12-27T20:05:05.735Z,98850.36
2022-12-27T20:07:33.753Z,98854.32
2022-12-27T20:10:02.280Z,98855.02
2022-12-27T20:12:30.567Z,98856.73
2022-12-27T20:14:58.755Z,98864.59
2022-12-27T20:17:28.839Z,98872.02
2022-12-27T20:19:56.995Z,98872.05
2022-12-27T20:22:25.226Z,98873.04
2022-12-27T20:24:53.370Z,98876.89
2022-12-27T20:27:23.970Z,98876.97
2022-12-27T20:29:52.385Z,98873.73
2022-12-27T20:32:20.680Z,98878.42
2022-12-27T20:34:48.921Z,98880.77
2022-12-27T20:37:22.665Z,98888.67
2022-12-27T20:39:52.631Z,98893.52
2022-12-27T20:42:20.708Z,98898.73
2022-12-27T20:44:48.782Z,98904.78
2022-12-27T20:47:17.069Z,98908.23
2022-12-27T20:49:45.429Z,98911.14
2022-12-27T20:52:13.505Z,98915.30
2022-12-27T20:54:42.288Z,98915.16
2022-12-27T20:57:10.458Z,98919.94
2022-12-27T20:59:38.456Z,98921.39
2022-12-27T21:02:06.986Z,98925.31
2022-12-27T21:04:35.386Z,98926.21
2022-12-27T21:07:03.754Z,98926.13
2022-12-27T21:09:32.291Z,98930.30
2022-12-27T21:12:00.491Z,98931.56
2022-12-27T21:14:28.588Z,98929.44
2022-12-27T21:16:57.330Z,98928.16
2022-12-27T21:19:25.857Z,98932.70
2022-12-27T21:21:53.936Z,98931.86
2022-12-27T21:24:22.505Z,98933.59
2022-12-27T21:26:54.677Z,98931.38
2022-12-27T21:29:25.049Z,98931.59
2022-12-27T21:31:53.529Z,98938.84
2022-12-27T21:34:21.851Z,98944.05
2022-12-27T21:36:53.272Z,98944.80
2022-12-27T21:39:21.376Z,98940.77
2022-12-27T21:41:49.400Z,98941.65
2022-12-27T21:44:17.508Z,98940.86
2022-12-27T21:46:45.591Z,98940.84
2022-12-27T21:49:17.104Z,98948.73
2022-12-27T21:51:45.516Z,98953.36
2022-12-27T21:54:14.120Z,98958.44
2022-12-27T21:56:42.783Z,98964.52
2022-12-27T21:59:12.155Z,98968.81
2022-12-27T22:01:50.477Z,98974.65
2022-12-27T22:04:21.601Z,98974.79
2022-12-27T22:06:50.461Z,98972.98
2022-12-27T22:09:19.483Z,98973.86
2022-12-27T22:11:49.092Z,98977.34
2022-12-27T22:14:21.786Z,98978.84
2022-12-27T22:16:51.533Z,98979.58
2022-12-27T22:19:19.785Z,98976.84
2022-12-27T22:21:48.099Z,98972.98
2022-12-27T22:24:19.873Z,98969.86
2022-12-27T22:26:50.272Z,98969.12
2022-12-27T22:29:18.664Z,98968.97
2022-12-27T22:31:47.004Z,98964.96
2022-12-27T22:34:15.581Z,98963.37
2022-12-27T22:36:43.848Z,98962.04
2022-12-27T22:39:12.130Z,98963.02
2022-12-27T22:41:40.406Z,98964.36
2022-12-27T22:44:12.452Z,98967.48
2022-12-27T22:47:15.635Z,98970.20
2022-12-27T22:49:30.235Z,98971.22
2022-12-27T22:51:58.349Z,98975.16
2022-12-27T22:55:04.295Z,98971.23
2022-12-27T22:57:15.193Z,98967.23
2022-12-27T22:59:44.001Z,98969.05
2022-12-27T23:02:12.120Z,98970.71
2022-12-27T23:04:41.488Z,98969.62
2022-12-27T23:07:09.536Z,98969.50
2022-12-27T23:09:42.823Z,98973.42
2022-12-27T23:12:12.764Z,98968.05
2022-12-27T23:14:40.946Z,98967.17
2022-12-27T23:17:09.038Z,98970.52
2022-12-27T23:19:37.265Z,98968.80
2022-12-27T23:22:06.228Z,98969.64
2022-12-27T23:24:34.298Z,98971.56
2022-12-27T23:27:03.522Z,98971.27
2022-12-27T23:29:31.907Z,98971.30
2022-12-27T23:32:00.083Z,98971.05
2022-12-27T23:34:29.286Z,98969.67
2022-12-27T23:36:59.107Z,98967.86
2022-12-27T23:39:27.770Z,98969.70
2022-12-27T23:41:56.339Z,98967.06
2022-12-27T23:44:34.519Z,98967.60
2022-12-27T23:47:05.625Z,98967.48
2022-12-27T23:49:34.638Z,98967.77
2022-12-27T23:52:03.378Z,98967.95
2022-12-27T23:54:31.465Z,98969.95
2022-12-27T23:57:20.097Z,98961.27
2022-12-27T23:59:47.686Z,98958.91
